sensor_id;sensor_type;location;lat;lon;timestamp;temperature;humidity
70246;SHT30;57637;49.272;8.590;2023-03-01T00:01:00;0.26;71.29
70246;SHT30;57637;49.272;8.590;2023-03-01T00:03:30;0.22;71.46
70246;SHT30;57637;49.272;8.590;2023-03-01T00:05:55;0.12;71.67
70246;SHT30;57637;49.272;8.590;2023-03-01T00:08:21;0.06;71.32
70246;SHT30;57637;49.272;8.590;2023-03-01T00:10:46;0.05;72.25
70246;SHT30;57637;49.272;8.590;2023-03-01T00:13:11;0.05;72.02
70246;SHT30;57637;49.272;8.590;2023-03-01T00:15:40;-0.01;72.24
70246;SHT30;57637;49.272;8.590;2023-03-01T00:18:06;-0.02;72.43
70246;SHT30;57637;49.272;8.590;2023-03-01T00:20:33;-0.02;72.23
70246;SHT30;57637;49.272;8.590;2023-03-01T00:22:58;0.02;72.47
70246;SHT30;57637;49.272;8.590;2023-03-01T00:25:24;-0.02;72.42
70246;SHT30;57637;49.272;8.590;2023-03-01T00:27:49;-0.15;72.95
70246;SHT30;57637;49.272;8.590;2023-03-01T00:30:15;-0.19;73.22
70246;SHT30;57637;49.272;8.590;2023-03-01T00:32:43;-0.26;73.17
70246;SHT30;57637;49.272;8.590;2023-03-01T00:35:08;-0.32;73.18
70246;SHT30;57637;49.272;8.590;2023-03-01T00:37:34;-0.43;73.66
70246;SHT30;57637;49.272;8.590;2023-03-01T00:39:59;-0.42;73.74
70246;SHT30;57637;49.272;8.590;2023-03-01T00:42:25;-0.49;74.11
70246;SHT30;57637;49.272;8.590;2023-03-01T00:44:50;-0.52;74.35
70246;SHT30;57637;49.272;8.590;2023-03-01T00:47:15;-0.62;74.44
70246;SHT30;57637;49.272;8.590;2023-03-01T00:49:41;-0.74;74.70
70246;SHT30;57637;49.272;8.590;2023-03-01T00:52:06;-0.86;75.23
70246;SHT30;57637;49.272;8.590;2023-03-01T00:54:31;-0.93;75.71
70246;SHT30;57637;49.272;8.590;2023-03-01T00:56:57;-0.92;75.83
70246;SHT30;57637;49.272;8.590;2023-03-01T00:59:22;-0.96;75.91
70246;SHT30;57637;49.272;8.590;2023-03-01T01:01:48;-0.97;76.06
70246;SHT30;57637;49.272;8.590;2023-03-01T01:04:13;-0.99;76.35
70246;SHT30;57637;49.272;8.590;2023-03-01T01:06:43;-0.92;76.50
70246;SHT30;57637;49.272;8.590;2023-03-01T01:09:10;-0.77;76.17
70246;SHT30;57637;49.272;8.590;2023-03-01T01:11:41;-0.82;75.88
70246;SHT30;57637;49.272;8.590;2023-03-01T01:14:14;-0.89;76.01
70246;SHT30;57637;49.272;8.590;2023-03-01T01:16:39;-0.83;76.08
70246;SHT30;57637;49.272;8.590;2023-03-01T01:19:05;-0.87;76.29
70246;SHT30;57637;49.272;8.590;2023-03-01T01:21:31;-0.90;76.24
70246;SHT30;57637;49.272;8.590;2023-03-01T01:23:57;-0.94;76.13
70246;SHT30;57637;49.272;8.590;2023-03-01T01:26:30;-0.96;76.18
70246;SHT30;57637;49.272;8.590;2023-03-01T01:28:57;-1.01;76.19
70246;SHT30;57637;49.272;8.590;2023-03-01T01:31:24;-1.00;76.23
70246;SHT30;57637;49.272;8.590;2023-03-01T01:33:50;-0.99;76.55
70246;SHT30;57637;49.272;8.590;2023-03-01T01:36:16;-1.04;76.20
70246;SHT30;57637;49.272;8.590;2023-03-01T01:38:42;-1.10;76.43
70246;SHT30;57637;49.272;8.590;2023-03-01T01:41:07;-1.11;76.62
70246;SHT30;57637;49.272;8.590;2023-03-01T01:43:37;-1.15;76.93
70246;SHT30;57637;49.272;8.590;2023-03-01T01:48:50;-0.93;76.69
70246;SHT30;57637;49.272;8.590;2023-03-01T01:51:21;-1.01;76.56
70246;SHT30;57637;49.272;8.590;2023-03-01T01:53:52;-0.84;76.05
70246;SHT30;57637;49.272;8.590;2023-03-01T01:56:21;-0.62;75.66
70246;SHT30;57637;49.272;8.590;2023-03-01T01:58:49;-0.74;76.17
70246;SHT30;57637;49.272;8.590;2023-03-01T02:01:15;-0.77;76.20
70246;SHT30;57637;49.272;8.590;2023-03-01T02:03:41;-0.93;76.38
70246;SHT30;57637;49.272;8.590;2023-03-01T02:08:35;-0.99;76.71
70246;SHT30;57637;49.272;8.590;2023-03-01T02:11:03;-0.96;76.56
70246;SHT30;57637;49.272;8.590;2023-03-01T02:13:30;-1.00;76.91
70246;SHT30;57637;49.272;8.590;2023-03-01T02:15:57;-1.10;76.99
70246;SHT30;57637;49.272;8.590;2023-03-01T02:18:22;-1.17;77.22
70246;SHT30;57637;49.272;8.590;2023-03-01T02:23:14;-1.13;77.61
70246;SHT30;57637;49.272;8.590;2023-03-01T02:28:33;-1.25;77.22
70246;SHT30;57637;49.272;8.590;2023-03-01T02:31:02;-1.40;77.37
70246;SHT30;57637;49.272;8.590;2023-03-01T02:33:48;-1.71;77.90
70246;SHT30;57637;49.272;8.590;2023-03-01T02:36:15;-1.82;78.61
70246;SHT30;57637;49.272;8.590;2023-03-01T02:38:43;-1.87;78.71
70246;SHT30;57637;49.272;8.590;2023-03-01T02:41:10;-1.85;79.19
70246;SHT30;57637;49.272;8.590;2023-03-01T02:43:39;-1.86;79.51
70246;SHT30;57637;49.272;8.590;2023-03-01T02:46:12;-1.85;79.79
70246;SHT30;57637;49.272;8.590;2023-03-01T02:48:45;-1.90;79.70
70246;SHT30;57637;49.272;8.590;2023-03-01T02:54:03;-2.05;80.22
70246;SHT30;57637;49.272;8.590;2023-03-01T02:56:41;-2.07;80.41
70246;SHT30;57637;49.272;8.590;2023-03-01T02:59:08;-2.11;80.21
70246;SHT30;57637;49.272;8.590;2023-03-01T03:01:34;-2.10;80.14
70246;SHT30;57637;49.272;8.590;2023-03-01T03:04:06;-2.14;80.29
70246;SHT30;57637;49.272;8.590;2023-03-01T03:06:32;-2.13;80.41
70246;SHT30;57637;49.272;8.590;2023-03-01T03:08:58;-2.22;80.46
70246;SHT30;57637;49.272;8.590;2023-03-01T03:11:24;-2.11;80.59
70246;SHT30;57637;49.272;8.590;2023-03-01T03:13:50;-2.11;80.83
70246;SHT30;57637;49.272;8.590;2023-03-01T03:16:17;-2.19;80.81
70246;SHT30;57637;49.272;8.590;2023-03-01T03:18:42;-2.09;81.21
70246;SHT30;57637;49.272;8.590;2023-03-01T03:21:08;-2.02;80.45
70246;SHT30;57637;49.272;8.590;2023-03-01T03:23:36;-2.05;80.35
70246;SHT30;57637;49.272;8.590;2023-03-01T03:26:02;-1.96;80.44
70246;SHT30;57637;49.272;8.590;2023-03-01T03:28:29;-1.92;80.49
70246;SHT30;57637;49.272;8.590;2023-03-01T03:30:55;-1.87;80.20
70246;SHT30;57637;49.272;8.590;2023-03-01T03:33:21;-1.54;79.64
70246;SHT30;57637;49.272;8.590;2023-03-01T03:35:47;-1.65;79.09
70246;SHT30;57637;49.272;8.590;2023-03-01T03:38:14;-1.71;79.43
70246;SHT30;57637;49.272;8.590;2023-03-01T03:40:49;-1.68;79.56
70246;SHT30;57637;49.272;8.590;2023-03-01T03:43:18;-1.47;79.46
70246;SHT30;57637;49.272;8.590;2023-03-01T03:45:46;-1.24;79.00
70246;SHT30;57637;49.272;8.590;2023-03-01T03:48:13;-1.14;78.34
70246;SHT30;57637;49.272;8.590;2023-03-01T03:50:39;-1.10;78.20
70246;SHT30;57637;49.272;8.590;2023-03-01T03:53:10;-1.07;78.08
70246;SHT30;57637;49.272;8.590;2023-03-01T03:55:37;-1.11;77.86
70246;SHT30;57637;49.272;8.590;2023-03-01T03:58:04;-1.00;78.04
70246;SHT30;57637;49.272;8.590;2023-03-01T04:00:38;-1.10;77.67
70246;SHT30;57637;49.272;8.590;2023-03-01T04:03:05;-1.14;77.90
70246;SHT30;57637;49.272;8.590;2023-03-01T04:05:31;-1.03;78.03
70246;SHT30;57637;49.272;8.590;2023-03-01T04:07:57;-1.01;77.89
70246;SHT30;57637;49.272;8.590;2023-03-01T04:10:30;-1.13;77.79
70246;SHT30;57637;49.272;8.590;2023-03-01T04:12:56;-1.21;78.02
70246;SHT30;57637;49.272;8.590;2023-03-01T04:15:22;-1.25;78.58
70246;SHT30;57637;49.272;8.590;2023-03-01T04:17:50;-1.35;78.26
70246;SHT30;57637;49.272;8.590;2023-03-01T04:20:18;-1.31;78.54
70246;SHT30;57637;49.272;8.590;2023-03-01T04:22:52;-1.38;78.68
70246;SHT30;57637;49.272;8.590;2023-03-01T04:25:25;-1.48;78.85
70246;SHT30;57637;49.272;8.590;2023-03-01T04:27:50;-1.54;79.17
70246;SHT30;57637;49.272;8.590;2023-03-01T04:30:16;-1.58;79.26
70246;SHT30;57637;49.272;8.590;2023-03-01T04:32:41;-1.58;79.41
70246;SHT30;57637;49.272;8.590;2023-03-01T04:35:07;-1.64;79.39
70246;SHT30;57637;49.272;8.590;2023-03-01T04:37:33;-1.68;79.59
70246;SHT30;57637;49.272;8.590;2023-03-01T04:39:59;-1.52;79.77
70246;SHT30;57637;49.272;8.590;2023-03-01T04:42:25;-1.38;79.31
70246;SHT30;57637;49.272;8.590;2023-03-01T04:44:50;-1.23;78.92
70246;SHT30;57637;49.272;8.590;2023-03-01T04:47:16;-1.35;78.66
70246;SHT30;57637;49.272;8.590;2023-03-01T04:49:42;-1.31;78.60
70246;SHT30;57637;49.272;8.590;2023-03-01T04:52:07;-1.38;78.87
70246;SHT30;57637;49.272;8.590;2023-03-01T04:54:33;-1.35;78.90
70246;SHT30;57637;49.272;8.590;2023-03-01T04:56:59;-1.41;79.30
70246;SHT30;57637;49.272;8.590;2023-03-01T04:59:26;-1.43;79.33
70246;SHT30;57637;49.272;8.590;2023-03-01T05:01:53;-1.52;79.40
70246;SHT30;57637;49.272;8.590;2023-03-01T05:04:22;-1.64;79.41
70246;SHT30;57637;49.272;8.590;2023-03-01T05:06:48;-1.71;79.92
70246;SHT30;57637;49.272;8.590;2023-03-01T05:09:14;-1.76;80.13
70246;SHT30;57637;49.272;8.590;2023-03-01T05:11:39;-1.85;80.27
70246;SHT30;57637;49.272;8.590;2023-03-01T05:14:05;-1.90;80.48
70246;SHT30;57637;49.272;8.590;2023-03-01T05:16:31;-1.92;80.59
70246;SHT30;57637;49.272;8.590;2023-03-01T05:18:58;-2.00;80.63
70246;SHT30;57637;49.272;8.590;2023-03-01T05:21:23;-2.09;80.81
70246;SHT30;57637;49.272;8.590;2023-03-01T05:23:50;-2.17;80.93
70246;SHT30;57637;49.272;8.590;2023-03-01T05:26:17;-2.27;81.28
70246;SHT30;57637;49.272;8.590;2023-03-01T05:28:45;-2.36;81.69
70246;SHT30;57637;49.272;8.590;2023-03-01T05:31:10;-2.46;82.14
70246;SHT30;57637;49.272;8.590;2023-03-01T05:33:36;-2.51;82.43
70246;SHT30;57637;49.272;8.590;2023-03-01T05:36:03;-2.53;82.42
70246;SHT30;57637;49.272;8.590;2023-03-01T05:38:28;-2.54;82.47
70246;SHT30;57637;49.272;8.590;2023-03-01T05:41:00;-2.60;82.54
70246;SHT30;57637;49.272;8.590;2023-03-01T05:43:32;-2.62;82.74
70246;SHT30;57637;49.272;8.590;2023-03-01T05:46:00;-2.64;82.82
70246;SHT30;57637;49.272;8.590;2023-03-01T05:48:25;-2.64;82.99
70246;SHT30;57637;49.272;8.590;2023-03-01T05:50:51;-2.65;83.02
70246;SHT30;57637;49.272;8.590;2023-03-01T05:53:17;-2.67;83.16
70246;SHT30;57637;49.272;8.590;2023-03-01T05:55:46;-2.70;83.23
70246;SHT30;57637;49.272;8.590;2023-03-01T05:58:16;-2.68;83.16
70246;SHT30;57637;49.272;8.590;2023-03-01T06:00:43;-2.71;83.07
70246;SHT30;57637;49.272;8.590;2023-03-01T06:03:11;-2.64;83.27
70246;SHT30;57637;49.272;8.590;2023-03-01T06:05:38;-2.61;83.15
70246;SHT30;57637;49.272;8.590;2023-03-01T06:08:04;-2.67;82.98
70246;SHT30;57637;49.272;8.590;2023-03-01T06:10:30;-2.65;83.00
70246;SHT30;57637;49.272;8.590;2023-03-01T06:12:56;-2.57;83.03
70246;SHT30;57637;49.272;8.590;2023-03-01T06:15:23;-2.58;82.90
70246;SHT30;57637;49.272;8.590;2023-03-01T06:17:50;-2.62;82.62
70246;SHT30;57637;49.272;8.590;2023-03-01T06:20:16;-2.64;82.57
70246;SHT30;57637;49.272;8.590;2023-03-01T06:22:44;-2.61;82.47
70246;SHT30;57637;49.272;8.590;2023-03-01T06:25:10;-2.64;82.56
70246;SHT30;57637;49.272;8.590;2023-03-01T06:27:37;-2.54;82.49
70246;SHT30;57637;49.272;8.590;2023-03-01T06:30:03;-2.53;82.44
70246;SHT30;57637;49.272;8.590;2023-03-01T06:32:29;-2.48;82.44
70246;SHT30;57637;49.272;8.590;2023-03-01T06:34:56;-2.43;82.47
70246;SHT30;57637;49.272;8.590;2023-03-01T06:37:23;-2.33;82.00
70246;SHT30;57637;49.272;8.590;2023-03-01T06:39:49;-2.07;81.67
70246;SHT30;57637;49.272;8.590;2023-03-01T06:42:14;-1.90;81.08
70246;SHT30;57637;49.272;8.590;2023-03-01T06:44:39;-1.72;80.40
70246;SHT30;57637;49.272;8.590;2023-03-01T06:47:05;-1.59;79.81
70246;SHT30;57637;49.272;8.590;2023-03-01T06:49:30;-1.37;79.38
70246;SHT30;57637;49.272;8.590;2023-03-01T06:51:56;-1.20;78.75
70246;SHT30;57637;49.272;8.590;2023-03-01T06:54:22;-1.01;78.16
70246;SHT30;57637;49.272;8.590;2023-03-01T06:56:47;-0.83;77.35
70246;SHT30;57637;49.272;8.590;2023-03-01T06:59:14;-0.77;77.17
70246;SHT30;57637;49.272;8.590;2023-03-01T07:01:40;-0.70;76.84
70246;SHT30;57637;49.272;8.590;2023-03-01T07:04:05;-0.65;77.02
70246;SHT30;57637;49.272;8.590;2023-03-01T07:06:31;-0.58;76.89
70246;SHT30;57637;49.272;8.590;2023-03-01T07:08:56;-0.39;75.91
70246;SHT30;57637;49.272;8.590;2023-03-01T07:11:22;-0.56;76.79
70246;SHT30;57637;49.272;8.590;2023-03-01T07:13:51;-0.52;76.77
70246;SHT30;57637;49.272;8.590;2023-03-01T07:16:16;-0.29;76.57
70246;SHT30;57637;49.272;8.590;2023-03-01T07:18:41;0.10;76.77
70246;SHT30;57637;49.272;8.590;2023-03-01T07:21:08;-0.08;75.87
70246;SHT30;57637;49.272;8.590;2023-03-01T07:23:36;0.22;75.25
70246;SHT30;57637;49.272;8.590;2023-03-01T07:26:01;0.22;74.42
70246;SHT30;57637;49.272;8.590;2023-03-01T07:28:27;0.37;74.01
70246;SHT30;57637;49.272;8.590;2023-03-01T07:30:53;0.34;74.03
70246;SHT30;57637;49.272;8.590;2023-03-01T07:33:18;0.52;73.66
70246;SHT30;57637;49.272;8.590;2023-03-01T07:35:44;0.54;73.32
70246;SHT30;57637;49.272;8.590;2023-03-01T07:38:09;0.60;72.95
70246;SHT30;57637;49.272;8.590;2023-03-01T07:40:34;0.71;72.58
70246;SHT30;57637;49.272;8.590;2023-03-01T07:43:00;0.73;72.02
70246;SHT30;57637;49.272;8.590;2023-03-01T07:45:26;0.75;71.86
70246;SHT30;57637;49.272;8.590;2023-03-01T07:47:53;0.85;71.28
70246;SHT30;57637;49.272;8.590;2023-03-01T07:50:19;0.99;71.02
70246;SHT30;57637;49.272;8.590;2023-03-01T07:52:45;0.97;70.81
70246;SHT30;57637;49.272;8.590;2023-03-01T07:55:11;1.02;70.73
70246;SHT30;57637;49.272;8.590;2023-03-01T07:57:36;1.11;70.30
70246;SHT30;57637;49.272;8.590;2023-03-01T08:00:02;1.29;70.15
70246;SHT30;57637;49.272;8.590;2023-03-01T08:02:28;1.22;69.67
70246;SHT30;57637;49.272;8.590;2023-03-01T08:04:53;1.31;69.88
70246;SHT30;57637;49.272;8.590;2023-03-01T08:07:19;1.43;69.45
70246;SHT30;57637;49.272;8.590;2023-03-01T08:09:44;1.48;69.15
70246;SHT30;57637;49.272;8.590;2023-03-01T08:12:10;1.56;68.87
70246;SHT30;57637;49.272;8.590;2023-03-01T08:14:35;1.58;68.68
70246;SHT30;57637;49.272;8.590;2023-03-01T08:17:00;1.60;68.05
70246;SHT30;57637;49.272;8.590;2023-03-01T08:19:28;1.74;68.24
70246;SHT30;57637;49.272;8.590;2023-03-01T08:21:54;1.81;67.95
70246;SHT30;57637;49.272;8.590;2023-03-01T08:24:20;1.77;67.94
70246;SHT30;57637;49.272;8.590;2023-03-01T08:26:45;1.89;67.91
70246;SHT30;57637;49.272;8.590;2023-03-01T08:29:11;2.07;67.22
70246;SHT30;57637;49.272;8.590;2023-03-01T08:31:37;2.14;67.08
70246;SHT30;57637;49.272;8.590;2023-03-01T08:34:07;1.99;66.79
70246;SHT30;57637;49.272;8.590;2023-03-01T08:36:35;2.09;66.33
70246;SHT30;57637;49.272;8.590;2023-03-01T08:39:03;2.04;66.31
70246;SHT30;57637;49.272;8.590;2023-03-01T08:41:29;2.21;65.87
70246;SHT30;57637;49.272;8.590;2023-03-01T08:43:55;2.49;65.53
70246;SHT30;57637;49.272;8.590;2023-03-01T08:46:31;2.40;65.48
70246;SHT30;57637;49.272;8.590;2023-03-01T08:48:58;2.78;65.47
70246;SHT30;57637;49.272;8.590;2023-03-01T08:51:25;2.75;64.86
70246;SHT30;57637;49.272;8.590;2023-03-01T08:53:51;2.86;64.37
70246;SHT30;57637;49.272;8.590;2023-03-01T08:56:17;2.62;64.80
70246;SHT30;57637;49.272;8.590;2023-03-01T08:58:46;2.66;64.52
70246;SHT30;57637;49.272;8.590;2023-03-01T09:01:14;2.86;64.62
70246;SHT30;57637;49.272;8.590;2023-03-01T09:03:42;2.86;64.24
70246;SHT30;57637;49.272;8.590;2023-03-01T09:06:07;3.00;63.75
70246;SHT30;57637;49.272;8.590;2023-03-01T09:08:34;2.95;63.92
70246;SHT30;57637;49.272;8.590;2023-03-01T09:11:02;3.06;64.23
70246;SHT30;57637;49.272;8.590;2023-03-01T09:13:29;3.04;63.69
70246;SHT30;57637;49.272;8.590;2023-03-01T09:15:56;2.88;63.34
70246;SHT30;57637;49.272;8.590;2023-03-01T09:18:22;2.93;63.75
70246;SHT30;57637;49.272;8.590;2023-03-01T09:20:47;3.06;63.65
70246;SHT30;57637;49.272;8.590;2023-03-01T09:23:13;3.23;63.15
70246;SHT30;57637;49.272;8.590;2023-03-01T09:25:38;3.37;62.92
70246;SHT30;57637;49.272;8.590;2023-03-01T09:28:04;3.36;62.52
70246;SHT30;57637;49.272;8.590;2023-03-01T09:30:29;3.27;62.89
70246;SHT30;57637;49.272;8.590;2023-03-01T09:32:56;3.53;62.53
70246;SHT30;57637;49.272;8.590;2023-03-01T09:35:21;3.65;61.95
70246;SHT30;57637;49.272;8.590;2023-03-01T09:37:48;3.77;61.91
70246;SHT30;57637;49.272;8.590;2023-03-01T09:40:16;3.71;62.04
70246;SHT30;57637;49.272;8.590;2023-03-01T09:42:59;3.48;62.45
70246;SHT30;57637;49.272;8.590;2023-03-01T09:45:35;4.03;61.92
70246;SHT30;57637;49.272;8.590;2023-03-01T09:48:07;4.02;62.00
70246;SHT30;57637;49.272;8.590;2023-03-01T09:50:41;3.88;61.62
70246;SHT30;57637;49.272;8.590;2023-03-01T09:53:25;4.15;60.99
70246;SHT30;57637;49.272;8.590;2023-03-01T10:04:10;4.01;60.62
70246;SHT30;57637;49.272;8.590;2023-03-01T10:07:05;4.13;60.29
70246;SHT30;57637;49.272;8.590;2023-03-01T10:09:42;4.35;60.49
70246;SHT30;57637;49.272;8.590;2023-03-01T10:12:11;4.30;60.29
70246;SHT30;57637;49.272;8.590;2023-03-01T10:14:48;4.57;59.57
70246;SHT30;57637;49.272;8.590;2023-03-01T10:17:30;4.33;60.38
70246;SHT30;57637;49.272;8.590;2023-03-01T10:20:14;4.26;60.43
70246;SHT30;57637;49.272;8.590;2023-03-01T10:22:43;4.63;60.07
70246;SHT30;57637;49.272;8.590;2023-03-01T10:25:15;4.85;58.95
70246;SHT30;57637;49.272;8.590;2023-03-01T10:27:54;4.53;59.37
70246;SHT30;57637;49.272;8.590;2023-03-01T10:30:35;4.74;59.35
70246;SHT30;57637;49.272;8.590;2023-03-01T10:33:09;4.81;59.30
70246;SHT30;57637;49.272;8.590;2023-03-01T10:35:42;4.88;59.04
70246;SHT30;57637;49.272;8.590;2023-03-01T10:40:35;5.24;57.97
70246;SHT30;57637;49.272;8.590;2023-03-01T10:43:02;5.41;58.32
70246;SHT30;57637;49.272;8.590;2023-03-01T10:45:31;5.15;58.05
70246;SHT30;57637;49.272;8.590;2023-03-01T10:50:48;5.41;57.89
70246;SHT30;57637;49.272;8.590;2023-03-01T10:56:01;5.60;57.24
70246;SHT30;57637;49.272;8.590;2023-03-01T10:58:30;5.65;57.06
70246;SHT30;57637;49.272;8.590;2023-03-01T11:01:01;5.54;57.45
70246;SHT30;57637;49.272;8.590;2023-03-01T11:03:35;5.56;57.23
70246;SHT30;57637;49.272;8.590;2023-03-01T11:06:19;5.69;56.57
70246;SHT30;57637;49.272;8.590;2023-03-01T11:08:47;5.76;56.32
70246;SHT30;57637;49.272;8.590;2023-03-01T11:11:22;5.83;55.82
70246;SHT30;57637;49.272;8.590;2023-03-01T11:16:45;6.03;55.42
70246;SHT30;57637;49.272;8.590;2023-03-01T11:19:15;5.96;56.16
70246;SHT30;57637;49.272;8.590;2023-03-01T11:24:24;5.99;55.61
70246;SHT30;57637;49.272;8.590;2023-03-01T11:26:55;5.93;55.81
70246;SHT30;57637;49.272;8.590;2023-03-01T11:29:40;5.96;55.51
70246;SHT30;57637;49.272;8.590;2023-03-01T11:32:11;6.20;55.45
70246;SHT30;57637;49.272;8.590;2023-03-01T11:34:47;6.11;55.02
70246;SHT30;57637;49.272;8.590;2023-03-01T11:37:39;6.26;55.18
70246;SHT30;57637;49.272;8.590;2023-03-01T11:40:05;6.33;55.07
70246;SHT30;57637;49.272;8.590;2023-03-01T11:42:40;6.45;54.78
70246;SHT30;57637;49.272;8.590;2023-03-01T11:45:09;6.05;55.32
70246;SHT30;57637;49.272;8.590;2023-03-01T11:50:44;6.52;54.49
70246;SHT30;57637;49.272;8.590;2023-03-01T11:56:24;6.42;54.29
70246;SHT30;57637;49.272;8.590;2023-03-01T11:59:02;6.59;53.81
70246;SHT30;57637;49.272;8.590;2023-03-01T12:01:48;6.71;53.59
70246;SHT30;57637;49.272;8.590;2023-03-01T12:07:51;6.75;54.06
70246;SHT30;57637;49.272;8.590;2023-03-01T12:18:27;7.18;53.11
70246;SHT30;57637;49.272;8.590;2023-03-01T12:21:18;7.15;51.91
70246;SHT30;57637;49.272;8.590;2023-03-01T12:24:14;6.92;52.33
70246;SHT30;57637;49.272;8.590;2023-03-01T12:46:18;7.43;52.00
70246;SHT30;57637;49.272;8.590;2023-03-01T12:48:53;7.62;51.66
70246;SHT30;57637;49.272;8.590;2023-03-01T12:51:32;7.33;52.01
70246;SHT30;57637;49.272;8.590;2023-03-01T12:54:01;7.37;52.04
70246;SHT30;57637;49.272;8.590;2023-03-01T12:56:36;7.62;51.81
70246;SHT30;57637;49.272;8.590;2023-03-01T13:09:46;7.84;51.18
70246;SHT30;57637;49.272;8.590;2023-03-01T13:17:49;7.91;51.29
70246;SHT30;57637;49.272;8.590;2023-03-01T13:20:29;7.94;51.25
70246;SHT30;57637;49.272;8.590;2023-03-01T13:23:39;7.93;50.80
70246;SHT30;57637;49.272;8.590;2023-03-01T13:31:07;8.29;49.65
70246;SHT30;57637;49.272;8.590;2023-03-01T13:36:08;8.14;49.83
70246;SHT30;57637;49.272;8.590;2023-03-01T13:54:57;8.50;49.76
70246;SHT30;57637;49.272;8.590;2023-03-01T13:57:24;8.44;49.58
70246;SHT30;57637;49.272;8.590;2023-03-01T13:59:54;8.44;50.27
70246;SHT30;57637;49.272;8.590;2023-03-01T14:02:19;8.57;49.81
70246;SHT30;57637;49.272;8.590;2023-03-01T14:04:46;8.32;49.70
70246;SHT30;57637;49.272;8.590;2023-03-01T14:07:24;8.57;50.21
70246;SHT30;57637;49.272;8.590;2023-03-01T14:10:01;8.53;50.57
70246;SHT30;57637;49.272;8.590;2023-03-01T14:18:25;8.22;50.97
70246;SHT30;57637;49.272;8.590;2023-03-01T14:21:01;8.46;50.57
70246;SHT30;57637;49.272;8.590;2023-03-01T14:23:33;8.50;50.77
70246;SHT30;57637;49.272;8.590;2023-03-01T14:26:00;8.55;50.39
70246;SHT30;57637;49.272;8.590;2023-03-01T14:28:27;8.52;49.72
70246;SHT30;57637;49.272;8.590;2023-03-01T14:31:03;8.49;50.77
70246;SHT30;57637;49.272;8.590;2023-03-01T14:34:16;8.44;50.66
70246;SHT30;57637;49.272;8.590;2023-03-01T14:36:44;8.65;50.43
70246;SHT30;57637;49.272;8.590;2023-03-01T14:39:19;8.62;49.59
70246;SHT30;57637;49.272;8.590;2023-03-01T14:41:48;8.70;49.44
70246;SHT30;57637;49.272;8.590;2023-03-01T14:44:16;8.79;49.65
70246;SHT30;57637;49.272;8.590;2023-03-01T14:46:51;8.75;49.18
70246;SHT30;57637;49.272;8.590;2023-03-01T14:49:20;8.66;49.20
70246;SHT30;57637;49.272;8.590;2023-03-01T14:54:28;8.52;49.63
70246;SHT30;57637;49.272;8.590;2023-03-01T14:57:00;8.49;49.41
70246;SHT30;57637;49.272;8.590;2023-03-01T14:59:26;8.49;50.07
70246;SHT30;57637;49.272;8.590;2023-03-01T15:01:53;8.35;49.84
70246;SHT30;57637;49.272;8.590;2023-03-01T15:04:20;8.42;49.74
70246;SHT30;57637;49.272;8.590;2023-03-01T15:06:50;8.50;50.24
70246;SHT30;57637;49.272;8.590;2023-03-01T15:09:16;8.41;49.62
70246;SHT30;57637;49.272;8.590;2023-03-01T15:11:42;8.25;49.91
70246;SHT30;57637;49.272;8.590;2023-03-01T15:14:27;8.39;49.67
70246;SHT30;57637;49.272;8.590;2023-03-01T15:17:48;8.39;50.47
70246;SHT30;57637;49.272;8.590;2023-03-01T15:20:17;8.52;50.24
70246;SHT30;57637;49.272;8.590;2023-03-01T15:22:50;8.41;50.10
70246;SHT30;57637;49.272;8.590;2023-03-01T15:25:17;8.41;49.92
70246;SHT30;57637;49.272;8.590;2023-03-01T15:27:47;8.31;50.03
70246;SHT30;57637;49.272;8.590;2023-03-01T15:30:22;8.24;50.16
70246;SHT30;57637;49.272;8.590;2023-03-01T15:33:36;8.21;50.59
70246;SHT30;57637;49.272;8.590;2023-03-01T15:35:45;8.29;50.24
70246;SHT30;57637;49.272;8.590;2023-03-01T15:38:30;8.26;50.47
70246;SHT30;57637;49.272;8.590;2023-03-01T15:41:22;8.24;50.60
70246;SHT30;57637;49.272;8.590;2023-03-01T15:43:47;8.16;50.61
70246;SHT30;57637;49.272;8.590;2023-03-01T15:48:49;8.09;51.12
70246;SHT30;57637;49.272;8.590;2023-03-01T15:51:18;8.02;50.89
70246;SHT30;57637;49.272;8.590;2023-03-01T15:53:49;7.99;51.12
70246;SHT30;57637;49.272;8.590;2023-03-01T15:56:17;8.01;51.30
70246;SHT30;57637;49.272;8.590;2023-03-01T15:58:42;7.98;51.56
70246;SHT30;57637;49.272;8.590;2023-03-01T16:01:12;7.94;51.08
70246;SHT30;57637;49.272;8.590;2023-03-01T16:03:42;7.90;50.97
70246;SHT30;57637;49.272;8.590;2023-03-01T16:06:10;7.90;51.25
70246;SHT30;57637;49.272;8.590;2023-03-01T16:08:37;7.90;51.35
70246;SHT30;57637;49.272;8.590;2023-03-01T16:11:03;7.85;51.78
70246;SHT30;57637;49.272;8.590;2023-03-01T16:13:36;7.78;52.25
70246;SHT30;57637;49.272;8.590;2023-03-01T16:16:01;7.75;52.23
70246;SHT30;57637;49.272;8.590;2023-03-01T16:18:26;7.78;51.57
70246;SHT30;57637;49.272;8.590;2023-03-01T16:20:52;7.75;51.57
70246;SHT30;57637;49.272;8.590;2023-03-01T16:23:19;7.71;51.38
70246;SHT30;57637;49.272;8.590;2023-03-01T16:25:44;7.69;51.68
70246;SHT30;57637;49.272;8.590;2023-03-01T16:28:10;7.63;51.89
70246;SHT30;57637;49.272;8.590;2023-03-01T16:30:36;7.53;52.38
70246;SHT30;57637;49.272;8.590;2023-03-01T16:33:02;7.44;52.60
70246;SHT30;57637;49.272;8.590;2023-03-01T16:35:31;7.40;52.98
70246;SHT30;57637;49.272;8.590;2023-03-01T16:37:57;7.39;53.06
70246;SHT30;57637;49.272;8.590;2023-03-01T16:40:27;7.37;53.16
70246;SHT30;57637;49.272;8.590;2023-03-01T16:42:54;7.32;53.45
70246;SHT30;57637;49.272;8.590;2023-03-01T16:45:24;7.19;54.30
70246;SHT30;57637;49.272;8.590;2023-03-01T16:47:50;7.18;53.98
70246;SHT30;57637;49.272;8.590;2023-03-01T16:50:19;7.09;54.25
70246;SHT30;57637;49.272;8.590;2023-03-01T16:52:45;7.10;53.93
70246;SHT30;57637;49.272;8.590;2023-03-01T16:55:10;7.03;54.33
70246;SHT30;57637;49.272;8.590;2023-03-01T16:57:36;6.93;54.52
70246;SHT30;57637;49.272;8.590;2023-03-01T17:00:03;6.75;55.25
70246;SHT30;57637;49.272;8.590;2023-03-01T17:02:34;6.78;54.98
70246;SHT30;57637;49.272;8.590;2023-03-01T17:05:00;6.74;55.08
70246;SHT30;57637;49.272;8.590;2023-03-01T17:07:27;6.68;55.36
70246;SHT30;57637;49.272;8.590;2023-03-01T17:09:53;6.52;56.01
70246;SHT30;57637;49.272;8.590;2023-03-01T17:12:19;6.40;56.36
70246;SHT30;57637;49.272;8.590;2023-03-01T17:14:44;6.31;56.68
70246;SHT30;57637;49.272;8.590;2023-03-01T17:17:10;6.17;57.04
70246;SHT30;57637;49.272;8.590;2023-03-01T17:19:36;6.09;57.40
70246;SHT30;57637;49.272;8.590;2023-03-01T17:22:08;6.10;57.18
70246;SHT30;57637;49.272;8.590;2023-03-01T17:24:35;6.02;57.19
70246;SHT30;57637;49.272;8.590;2023-03-01T17:27:01;5.95;57.43
70246;SHT30;57637;49.272;8.590;2023-03-01T17:29:27;5.89;57.45
70246;SHT30;57637;49.272;8.590;2023-03-01T17:31:52;5.80;57.69
70246;SHT30;57637;49.272;8.590;2023-03-01T17:34:19;5.76;57.96
70246;SHT30;57637;49.272;8.590;2023-03-01T17:36:45;5.80;57.97
70246;SHT30;57637;49.272;8.590;2023-03-01T17:39:11;5.73;58.03
70246;SHT30;57637;49.272;8.590;2023-03-01T17:41:37;5.73;57.88
70246;SHT30;57637;49.272;8.590;2023-03-01T17:44:02;5.69;57.78
70246;SHT30;57637;49.272;8.590;2023-03-01T17:46:28;5.75;57.42
70246;SHT30;57637;49.272;8.590;2023-03-01T17:48:53;5.60;58.00
70246;SHT30;57637;49.272;8.590;2023-03-01T17:51:19;5.67;58.11
70246;SHT30;57637;49.272;8.590;2023-03-01T17:53:44;5.60;58.33